Terminal Aerodrome Forecast
Issued by NWS Riverton, WY

Home | Current Version | Previous Version | Text Only | Print | Product List | Glossary On
Versions: 1 2 3 4 5 6 7 8 9 10 11 12 13 14 15 16 17 18 19 20 21 22 23 24 25 26 27
000
FTUS45 KRIW 241901 AAA
TAFRIW
TAF AMD
KRIW 241901Z 2419/2518 34011KT P6SM VCSH SCT030 BKN050
      TEMPO 2419/2420 6SM -RA BKN006
     FM242200 07007KT P6SM BKN060
     FM250900 VRB05KT P6SM VCFG FEW015
     FM251600 VRB06KT P6SM FEW100=

USA.gov is the U.S. government's official web portal to all federal, state and local government web resources and services.